Superior, Wyoming
Current Conditions -  °F | °C
As of 5:54 AM on Friday 24 Oct 2014 (Local Time) from KRKS Reporting Station
Clear Clear  
Wind Chill: 40°   Ceiling: Unl
Heat Index: 44°   Visibility: 10mi
Dew Point: 26°   Wind: 7mph
Humidity: 49%   Direction: 190°S
Pressure: 30.21"   Gusts: NA
Location:  41.77°N, 108.98°W
Report Text: KRKS 241154Z AUTO 19006KT 10SM CLR 07/M03 A3021 RMK AO2 SLP185 T00671033 10106 20056 53003
Loading
Personal Weather Stations






























Interactive Weather Map
Tropical Storm Tracking
New forecast layout! Learn more

10-Day Weather Forecast

Advertisements
Track Severe Weather on mobile